createdAt,value
2022-10-19T00:00:46.423Z,28.75
2022-10-19T00:03:23.244Z,26.75
2022-10-19T00:06:41.774Z,26.45
2022-10-19T00:09:26.155Z,27.33
2022-10-19T00:12:10.339Z,26.05
2022-10-19T00:14:42.011Z,26.25
2022-10-19T00:17:12.217Z,27.65
2022-10-19T00:19:46.364Z,26.38
2022-10-19T00:22:16.281Z,28.02
2022-10-19T00:25:06.937Z,27.85
2022-10-19T00:27:34.498Z,28.40
2022-10-19T00:30:07.044Z,26.95
2022-10-19T00:32:46.969Z,26.33
2022-10-19T00:35:16.742Z,27.63
2022-10-19T00:37:54.297Z,29.25
2022-10-19T00:40:42.096Z,29.60
2022-10-19T00:43:33.046Z,27.98
2022-10-19T00:46:03.966Z,29.67
2022-10-19T00:48:34.092Z,28.23
2022-10-19T00:51:09.638Z,29.27
2022-10-19T00:53:41.809Z,29.40
2022-10-19T00:56:19.699Z,30.15
2022-10-19T00:58:53.074Z,28.83
2022-10-19T01:01:33.020Z,30.95
2022-10-19T01:04:05.868Z,31.52
2022-10-19T01:06:37.075Z,31.75
2022-10-19T01:09:06.340Z,32.10
2022-10-19T01:11:59.137Z,32.30
2022-10-19T01:15:02.549Z,33.35
2022-10-19T01:17:57.551Z,32.08
2022-10-19T01:20:28.889Z,34.45
2022-10-19T01:23:18.715Z,32.17
2022-10-19T01:26:21.674Z,34.63
2022-10-19T01:28:55.049Z,38.55
2022-10-19T01:31:38.915Z,39.15
2022-10-19T01:34:52.793Z,40.72
2022-10-19T01:37:41.445Z,45.30
2022-10-19T01:40:09.182Z,41.15
2022-10-19T01:42:56.942Z,42.80
2022-10-19T01:45:53.504Z,44.40
2022-10-19T01:48:35.725Z,45.20
2022-10-19T01:51:14.212Z,45.08
2022-10-19T01:53:48.713Z,43.28
2022-10-19T01:56:19.640Z,44.40
2022-10-19T01:58:49.495Z,45.77
2022-10-19T02:01:22.266Z,48.03
2022-10-19T02:03:55.699Z,47.42
2022-10-19T02:06:26.579Z,47.78
2022-10-19T02:09:01.136Z,49.73
2022-10-19T02:11:31.212Z,49.22
2022-10-19T02:14:12.733Z,50.20
2022-10-19T02:16:49.774Z,48.50
2022-10-19T02:19:20.847Z,48.83
2022-10-19T02:21:48.483Z,48.00
2022-10-19T02:24:16.316Z,47.88
2022-10-19T02:26:44.912Z,49.78
2022-10-19T02:29:15.481Z,48.47
2022-10-19T02:31:56.575Z,48.72
2022-10-19T02:34:26.971Z,47.80
2022-10-19T02:36:58.717Z,46.80
2022-10-19T02:39:30.830Z,48.55
2022-10-19T02:42:10.425Z,49.70
2022-10-19T02:44:43.241Z,49.05
2022-10-19T02:47:31.168Z,48.97
2022-10-19T02:49:58.701Z,48.67
2022-10-19T02:52:35.155Z,49.22
2022-10-19T02:55:03.623Z,51.00
2022-10-19T02:57:33.680Z,48.95
2022-10-19T03:00:21.534Z,49.88
2022-10-19T03:02:56.931Z,48.05
2022-10-19T03:05:27.533Z,49.65
2022-10-19T03:07:55.956Z,47.00
2022-10-19T03:10:30.200Z,50.67
2022-10-19T03:13:00.126Z,51.00
2022-10-19T03:15:31.840Z,50.05
2022-10-19T03:18:01.717Z,49.80
2022-10-19T03:20:29.650Z,49.50
2022-10-19T03:22:57.916Z,49.03
2022-10-19T03:25:27.755Z,49.58
2022-10-19T03:27:55.946Z,49.20
2022-10-19T03:30:30.369Z,49.42
2022-10-19T03:33:01.047Z,50.38
2022-10-19T03:35:32.130Z,47.92
2022-10-19T03:38:04.114Z,49.22
2022-10-19T03:40:40.403Z,48.28
2022-10-19T03:43:18.418Z,46.72
2022-10-19T03:45:53.661Z,48.00
2022-10-19T03:51:20.679Z,46.70
2022-10-19T03:54:27.403Z,47.58
2022-10-19T03:57:32.280Z,49.30
2022-10-19T04:03:10.341Z,47.30
2022-10-19T04:05:56.453Z,47.20
2022-10-19T04:08:34.938Z,45.63
2022-10-19T04:11:10.322Z,46.97
2022-10-19T04:13:45.961Z,48.78
2022-10-19T04:16:21.530Z,48.47
2022-10-19T04:18:58.160Z,48.40
2022-10-19T04:21:40.878Z,47.65
2022-10-19T04:24:20.250Z,45.90
2022-10-19T04:26:57.197Z,49.47
2022-10-19T04:29:32.049Z,48.10
2022-10-19T04:32:09.518Z,47.78
2022-10-19T04:34:42.924Z,46.65
2022-10-19T04:37:41.237Z,49.08
2022-10-19T04:40:19.789Z,46.92
2022-10-19T04:42:50.430Z,47.72
2022-10-19T04:45:20.917Z,48.63
2022-10-19T04:48:04.551Z,47.50
2022-10-19T04:50:45.837Z,47.15
2022-10-19T04:55:54.908Z,48.40
2022-10-19T04:58:27.958Z,49.55
2022-10-19T05:01:15.014Z,48.65
2022-10-19T05:03:46.208Z,45.97
2022-10-19T05:06:20.954Z,47.35
2022-10-19T05:08:57.555Z,47.85
2022-10-19T05:11:29.739Z,48.83
2022-10-19T05:13:59.582Z,46.13
2022-10-19T05:16:33.840Z,45.88
2022-10-19T05:19:07.344Z,44.53
2022-10-19T05:21:39.791Z,47.63
2022-10-19T05:24:12.991Z,46.47
2022-10-19T05:26:45.945Z,46.97
2022-10-19T05:29:15.859Z,47.92
2022-10-19T05:31:57.468Z,47.88
2022-10-19T05:34:28.804Z,45.88
2022-10-19T05:36:56.855Z,46.47
2022-10-19T05:39:42.257Z,45.30
2022-10-19T05:42:17.434Z,41.75
2022-10-19T05:44:47.307Z,41.05
2022-10-19T05:47:54.477Z,41.67
2022-10-19T05:50:28.007Z,39.95
2022-10-19T05:52:56.505Z,40.60
2022-10-19T05:55:40.490Z,39.70
2022-10-19T05:58:07.656Z,38.35
2022-10-19T06:00:55.320Z,39.35
2022-10-19T06:03:24.272Z,38.60
2022-10-19T06:05:52.593Z,37.95
2022-10-19T06:08:21.664Z,39.88
2022-10-19T06:10:49.488Z,41.50
2022-10-19T06:29:09.684Z,42.72
2022-10-19T06:32:24.946Z,44.28
2022-10-19T06:35:05.110Z,45.45
2022-10-19T06:41:19.044Z,44.42
2022-10-19T06:50:11.860Z,42.03
2022-10-19T06:55:55.390Z,41.25
2022-10-19T07:04:26.320Z,43.42
2022-10-19T07:07:23.470Z,44.05
2022-10-19T07:10:19.273Z,44.35
2022-10-19T07:13:11.885Z,44.35
2022-10-19T08:05:02.032Z,49.05
2022-10-19T08:07:33.943Z,45.28
2022-10-19T08:10:59.153Z,43.42
2022-10-19T08:13:45.775Z,43.53
2022-10-19T08:23:32.980Z,42.03
2022-10-19T08:26:42.063Z,44.30
2022-10-19T08:32:17.721Z,40.78
2022-10-19T08:38:34.748Z,44.42
2022-10-19T08:42:01.849Z,41.80
2022-10-19T08:44:45.781Z,44.17
2022-10-19T08:47:55.464Z,43.30
2022-10-19T08:50:32.099Z,45.47
2022-10-19T08:56:52.496Z,46.47
2022-10-19T09:01:06.204Z,43.97
2022-10-19T09:03:56.110Z,48.38
2022-10-19T09:07:17.156Z,48.00
2022-10-19T09:13:22.038Z,49.65
2022-10-19T09:16:07.625Z,47.58
2022-10-19T09:18:42.593Z,46.65
2022-10-19T09:21:33.348Z,46.63
2022-10-19T09:25:17.181Z,47.83
2022-10-19T09:28:56.587Z,47.10
2022-10-19T09:33:49.723Z,47.38
2022-10-19T09:36:22.970Z,48.20
2022-10-19T09:42:16.808Z,48.78
2022-10-19T09:44:46.348Z,46.30
2022-10-19T09:47:23.705Z,49.08
2022-10-19T09:49:51.223Z,46.70
2022-10-19T09:52:39.721Z,47.08
2022-10-19T09:55:45.972Z,47.92
2022-10-19T09:58:20.924Z,47.97
2022-10-19T10:00:51.468Z,48.22
2022-10-19T10:03:27.721Z,49.58
2022-10-19T10:44:52.543Z,50.00
2022-10-19T10:53:59.450Z,50.25
2022-10-19T10:56:33.525Z,51.75
2022-10-19T11:13:56.309Z,52.50
2022-10-19T11:30:24.479Z,52.97
2022-10-19T11:32:59.177Z,52.28
2022-10-19T11:39:43.395Z,54.63
2022-10-19T11:46:37.457Z,53.25
2022-10-19T11:53:42.217Z,53.40
2022-10-19T11:57:05.666Z,51.80
2022-10-19T12:11:48.708Z,51.70
2022-10-19T12:14:25.930Z,51.75
2022-10-19T12:17:11.224Z,50.80
2022-10-19T12:23:39.765Z,50.95
2022-10-19T12:33:16.116Z,50.17
2022-10-19T12:35:59.661Z,52.25
2022-10-19T12:42:42.574Z,49.38
2022-10-19T12:46:14.509Z,51.67
2022-10-19T12:48:41.843Z,51.88
2022-10-19T12:51:16.875Z,51.05
2022-10-19T12:57:13.006Z,51.10
2022-10-19T12:59:41.629Z,52.53
2022-10-19T13:09:00.746Z,49.85
2022-10-19T13:11:38.819Z,49.90
2022-10-19T14:37:27.380Z,38.95
2022-10-19T14:40:26.616Z,39.90
2022-10-19T14:42:55.869Z,38.90
2022-10-19T14:45:33.213Z,38.92
2022-10-19T14:48:00.232Z,38.53
2022-10-19T14:50:51.590Z,38.67
2022-10-19T14:53:39.532Z,39.90
2022-10-19T14:56:26.234Z,38.28
2022-10-19T14:59:00.828Z,39.83
2022-10-19T15:01:28.134Z,39.83
2022-10-19T15:03:55.665Z,40.22
2022-10-19T15:06:27.061Z,38.42
2022-10-19T15:11:39.611Z,39.40
2022-10-19T15:14:22.859Z,38.25
2022-10-19T15:16:54.067Z,38.83
2022-10-19T15:19:36.398Z,38.40
2022-10-19T15:22:32.498Z,36.75
2022-10-19T15:25:24.773Z,36.45
2022-10-19T15:27:53.728Z,37.10
2022-10-19T15:30:23.719Z,36.95
2022-10-19T15:32:56.321Z,36.50
2022-10-19T15:35:38.359Z,36.83
2022-10-19T15:38:18.592Z,36.05
2022-10-19T15:40:46.900Z,33.95
2022-10-19T15:43:34.858Z,37.38
2022-10-19T15:46:03.497Z,35.65
2022-10-19T15:48:55.238Z,35.83
2022-10-19T15:51:28.741Z,37.70
2022-10-19T15:54:00.899Z,38.75
2022-10-19T15:56:30.121Z,36.47
2022-10-19T15:58:59.910Z,36.97
2022-10-19T16:01:28.963Z,38.72
2022-10-19T16:03:56.300Z,39.53
2022-10-19T16:06:26.096Z,40.13
2022-10-19T16:08:54.257Z,40.88
2022-10-19T16:11:25.552Z,40.10
2022-10-19T16:13:52.753Z,41.53
2022-10-19T16:16:24.215Z,41.65
2022-10-19T16:18:52.467Z,39.78
2022-10-19T16:21:21.636Z,38.03
2022-10-19T16:23:49.089Z,37.75
2022-10-19T16:26:18.356Z,37.67
2022-10-19T16:28:45.582Z,35.95
2022-10-19T16:31:12.661Z,36.92
2022-10-19T16:33:39.692Z,37.58
2022-10-19T16:36:07.991Z,37.05
2022-10-19T16:38:36.041Z,37.03
2022-10-19T16:41:05.237Z,36.55
2022-10-19T16:43:32.304Z,38.63
2022-10-19T16:45:59.390Z,35.45
2022-10-19T16:48:26.670Z,36.22
2022-10-19T16:51:27.729Z,35.00
2022-10-19T16:53:57.816Z,35.75
2022-10-19T16:56:27.302Z,37.30
2022-10-19T16:58:56.396Z,36.33
2022-10-19T17:01:24.140Z,35.88
2022-10-19T17:03:51.404Z,33.60
2022-10-19T17:06:19.127Z,35.70
2022-10-19T17:09:30.171Z,48.83
2022-10-19T17:11:37.605Z,38.45
2022-10-19T17:14:11.052Z,36.60
2022-10-19T17:16:39.402Z,33.75
2022-10-19T17:19:13.736Z,31.60
2022-10-19T17:21:42.546Z,30.67
2022-10-19T17:24:20.249Z,31.23
2022-10-19T17:26:52.337Z,32.55
2022-10-19T17:29:20.801Z,31.27
2022-10-19T17:31:48.516Z,31.02
2022-10-19T17:34:16.109Z,30.02
2022-10-19T17:36:44.913Z,29.60
2022-10-19T17:39:17.586Z,28.52
2022-10-19T17:41:49.803Z,29.13
2022-10-19T17:44:18.709Z,28.17
2022-10-19T17:46:46.627Z,26.25
2022-10-19T17:49:14.846Z,26.05
2022-10-19T17:51:42.299Z,25.83
2022-10-19T17:54:13.141Z,24.48
2022-10-19T17:56:41.209Z,25.90
2022-10-19T17:59:10.001Z,25.65
2022-10-19T18:01:37.689Z,24.95
2022-10-19T18:04:07.183Z,24.65
2022-10-19T18:06:38.140Z,20.40
2022-10-19T18:09:09.449Z,21.42
2022-10-19T18:11:40.410Z,20.42
2022-10-19T18:14:10.306Z,21.40
2022-10-19T18:16:47.304Z,21.23
2022-10-19T18:19:17.666Z,22.08
2022-10-19T18:21:46.741Z,19.65
2022-10-19T18:24:19.452Z,19.58
2022-10-19T18:26:51.291Z,17.83
2022-10-19T18:31:53.341Z,16.42
2022-10-19T18:34:26.171Z,14.38
2022-10-19T18:36:54.517Z,14.45
2022-10-19T18:39:22.454Z,13.35
2022-10-19T18:41:54.679Z,13.50
2022-10-19T18:44:26.983Z,12.45
2022-10-19T18:46:57.009Z,12.73
2022-10-19T18:49:24.469Z,12.43
2022-10-19T18:51:55.116Z,11.70
2022-10-19T18:54:28.004Z,10.75
2022-10-19T18:56:55.755Z,11.38
2022-10-19T18:59:32.313Z,10.77
2022-10-19T19:02:13.580Z,11.10
2022-10-19T19:04:49.669Z,9.70
2022-10-19T19:07:16.698Z,9.15
2022-10-19T19:09:43.870Z,10.20
2022-10-19T19:12:10.838Z,9.80
2022-10-19T19:14:38.459Z,9.13
2022-10-19T19:17:05.392Z,9.23
2022-10-19T19:19:32.326Z,10.40
2022-10-19T19:22:05.118Z,10.48
2022-10-19T19:24:35.539Z,10.25
2022-10-19T19:27:02.434Z,10.60
2022-10-19T19:29:30.683Z,11.75
2022-10-19T19:31:57.696Z,10.60
2022-10-19T19:34:24.723Z,9.23
2022-10-19T19:36:51.719Z,9.13
2022-10-19T19:39:20.956Z,8.73
2022-10-19T19:41:49.104Z,9.20
2022-10-19T19:44:17.166Z,8.10
2022-10-19T19:46:44.059Z,8.18
2022-10-19T19:49:11.533Z,9.40
2022-10-19T19:51:38.549Z,8.48
2022-10-19T19:54:05.803Z,8.13
2022-10-19T19:56:33.288Z,8.77
2022-10-19T19:59:03.825Z,7.75
2022-10-19T20:01:31.758Z,8.43
2022-10-19T20:04:00.148Z,7.95
2022-10-19T20:06:27.198Z,8.85
2022-10-19T20:08:56.437Z,7.45
2022-10-19T20:11:25.388Z,8.05
2022-10-19T20:13:52.860Z,7.80
2022-10-19T20:16:26.569Z,8.40
2022-10-19T20:19:05.356Z,8.73
2022-10-19T20:21:33.660Z,8.13
2022-10-19T20:24:01.344Z,8.20
2022-10-19T20:26:28.952Z,8.55
2022-10-19T20:28:56.854Z,7.95
2022-10-19T20:31:24.439Z,7.68
2022-10-19T20:33:51.463Z,7.65
2022-10-19T20:36:22.211Z,7.18
2022-10-19T20:38:57.611Z,7.35
2022-10-19T20:41:27.280Z,7.53
2022-10-19T20:43:54.668Z,7.38
2022-10-19T20:46:27.773Z,7.47
2022-10-19T20:48:56.695Z,7.63
2022-10-19T20:51:30.724Z,7.85
2022-10-19T20:54:01.035Z,8.60
2022-10-19T20:56:29.914Z,9.43
2022-10-19T20:58:59.068Z,10.60
2022-10-19T21:01:27.339Z,10.25
2022-10-19T21:03:56.735Z,9.70
2022-10-19T21:06:26.433Z,9.88
2022-10-19T21:08:54.010Z,10.40
2022-10-19T21:11:26.866Z,10.82
2022-10-19T21:13:59.308Z,11.02
2022-10-19T21:16:28.372Z,10.20
2022-10-19T21:30:31.892Z,11.10
